createdAt,value
2023-05-14T00:02:13.538Z,91.57
2023-05-14T00:04:41.401Z,101.50
2023-05-14T00:07:09.194Z,100.43
2023-05-14T00:09:38.204Z,104.22
2023-05-14T00:12:06.306Z,106.50
2023-05-14T00:14:33.997Z,109.43
2023-05-14T00:17:01.692Z,111.65
2023-05-14T00:19:29.378Z,112.70
2023-05-14T00:21:57.048Z,116.60
2023-05-14T00:24:24.761Z,115.85
2023-05-14T00:26:53.763Z,119.55
2023-05-14T00:29:21.450Z,119.63
2023-05-14T00:31:49.304Z,122.53
2023-05-14T00:34:17.059Z,126.15
2023-05-14T00:36:44.709Z,128.68
2023-05-14T00:39:12.434Z,131.63
2023-05-14T00:41:40.166Z,132.15
2023-05-14T00:44:09.155Z,135.32
2023-05-14T00:46:36.931Z,137.57
2023-05-14T00:49:04.893Z,138.65
2023-05-14T00:51:32.571Z,138.57
2023-05-14T00:54:00.246Z,147.05
2023-05-14T00:56:27.984Z,147.40
2023-05-14T00:58:55.660Z,141.27
2023-05-14T01:01:24.761Z,145.80
2023-05-14T01:03:53.379Z,150.63
2023-05-14T01:06:26.330Z,151.52
2023-05-14T01:08:59.512Z,148.02
2023-05-14T01:11:31.088Z,149.40
2023-05-14T01:14:04.184Z,150.02
2023-05-14T01:16:34.324Z,150.30
2023-05-14T01:19:02.117Z,155.10
2023-05-14T01:21:40.779Z,151.90
2023-05-14T01:24:08.587Z,154.90
2023-05-14T01:26:36.801Z,159.75
2023-05-14T01:29:07.675Z,152.50
2023-05-14T01:31:35.718Z,157.23
2023-05-14T01:34:03.536Z,156.18
2023-05-14T01:36:31.191Z,157.07
2023-05-14T01:39:00.733Z,153.52
2023-05-14T01:41:28.423Z,155.77
2023-05-14T01:43:56.096Z,154.30
2023-05-14T01:46:24.983Z,155.43
2023-05-14T01:48:52.705Z,149.75
2023-05-14T01:51:20.491Z,149.88
2023-05-14T01:53:48.176Z,147.70
2023-05-14T01:56:17.325Z,149.32
2023-05-14T01:58:45.005Z,146.10
2023-05-14T02:01:12.714Z,147.00
2023-05-14T02:03:40.456Z,147.07
2023-05-14T02:06:08.412Z,144.60
2023-05-14T02:08:36.108Z,139.13
2023-05-14T02:11:03.861Z,136.57
2023-05-14T02:13:32.867Z,136.40
2023-05-14T02:16:00.589Z,131.98
2023-05-14T02:18:28.338Z,132.18
2023-05-14T02:20:57.373Z,128.27
2023-05-14T02:23:34.207Z,125.85
2023-05-14T02:26:09.486Z,122.82
2023-05-14T02:28:38.469Z,118.25
2023-05-14T02:31:06.247Z,113.55
2023-05-14T02:33:34.039Z,112.55
2023-05-14T02:36:01.808Z,112.10
2023-05-14T02:38:29.478Z,109.53
2023-05-14T02:40:57.632Z,107.65
2023-05-14T02:43:25.395Z,103.50
2023-05-14T02:45:54.507Z,100.35
2023-05-14T02:48:22.197Z,97.60
2023-05-14T02:50:51.370Z,97.63
2023-05-14T02:53:19.068Z,93.43
2023-05-14T02:55:46.762Z,92.20
2023-05-14T02:58:14.954Z,87.85
2023-05-14T03:00:42.668Z,85.18
2023-05-14T03:03:12.226Z,79.90
2023-05-14T03:05:40.465Z,78.57
2023-05-14T03:08:08.302Z,75.20
2023-05-14T03:10:36.011Z,74.80
2023-05-14T03:13:03.739Z,72.00
2023-05-14T03:15:31.438Z,67.93
2023-05-14T03:17:59.228Z,67.82
2023-05-14T03:20:28.342Z,66.78
2023-05-14T03:22:56.127Z,62.00
2023-05-14T03:25:23.852Z,60.63
2023-05-14T03:27:52.515Z,60.45
2023-05-14T03:30:20.400Z,58.08
2023-05-14T03:32:49.496Z,56.25
2023-05-14T03:35:17.367Z,55.92
2023-05-14T03:37:46.404Z,53.88
2023-05-14T03:40:14.096Z,50.90
2023-05-14T03:42:44.310Z,50.47
2023-05-14T03:45:11.996Z,48.17
2023-05-14T03:47:39.771Z,47.08
2023-05-14T03:50:08.909Z,45.85
2023-05-14T03:52:36.692Z,44.10
2023-05-14T03:55:06.366Z,42.35
2023-05-14T03:57:34.052Z,41.88
2023-05-14T04:00:03.433Z,41.55
2023-05-14T04:02:44.392Z,39.15
2023-05-14T04:05:12.313Z,37.65
2023-05-14T04:07:40.008Z,37.65
2023-05-14T04:10:10.316Z,36.55
2023-05-14T04:12:38.218Z,34.83
2023-05-14T04:15:08.002Z,33.95
2023-05-14T04:17:35.790Z,32.08
2023-05-14T04:20:03.629Z,30.40
2023-05-14T04:22:31.980Z,30.08
2023-05-14T04:24:59.641Z,29.17
2023-05-14T04:27:29.468Z,28.60
2023-05-14T04:29:57.136Z,26.92
2023-05-14T04:32:24.884Z,26.15
2023-05-14T04:34:52.564Z,25.05
2023-05-14T04:37:20.224Z,24.45
2023-05-14T04:39:47.904Z,22.95
2023-05-14T04:42:15.599Z,22.40
2023-05-14T04:44:44.592Z,21.60
2023-05-14T04:47:12.453Z,22.25
2023-05-14T04:49:40.116Z,20.80
2023-05-14T04:52:07.795Z,19.02
2023-05-14T04:54:35.487Z,19.55
2023-05-14T04:57:03.355Z,18.80
2023-05-14T04:59:31.127Z,17.55
2023-05-14T05:02:00.135Z,17.55
2023-05-14T05:04:28.286Z,17.13
2023-05-14T05:06:55.956Z,16.45
2023-05-14T05:09:23.611Z,15.35
2023-05-14T05:11:51.273Z,15.15
2023-05-14T05:14:18.930Z,15.00
2023-05-14T05:16:46.928Z,13.82
2023-05-14T05:19:15.974Z,14.35
2023-05-14T05:21:43.716Z,12.93
2023-05-14T05:24:11.451Z,12.50
2023-05-14T05:26:39.116Z,12.68
2023-05-14T05:29:06.796Z,11.52
2023-05-14T05:31:34.550Z,10.70
2023-05-14T05:34:02.256Z,10.90
2023-05-14T05:36:31.940Z,10.63
2023-05-14T05:38:59.600Z,11.50
2023-05-14T05:41:27.479Z,10.25
2023-05-14T05:43:55.161Z,10.10
2023-05-14T05:46:22.865Z,8.95
2023-05-14T05:48:50.598Z,9.13
2023-05-14T05:51:18.267Z,8.55
2023-05-14T05:53:47.317Z,9.40
2023-05-14T05:56:14.972Z,8.88
2023-05-14T05:58:42.663Z,8.10
2023-05-14T06:01:10.474Z,8.35
2023-05-14T06:03:38.120Z,8.32
2023-05-14T06:06:06.404Z,7.45
2023-05-14T06:08:34.073Z,6.82
2023-05-14T06:11:03.153Z,6.90
2023-05-14T06:13:30.857Z,6.55
2023-05-14T06:15:58.577Z,6.78
2023-05-14T06:18:26.467Z,6.55
2023-05-14T06:20:56.599Z,6.53
2023-05-14T06:23:24.310Z,6.07
2023-05-14T06:25:52.167Z,6.10
2023-05-14T06:28:21.230Z,6.03
2023-05-14T06:30:50.877Z,5.38
2023-05-14T06:33:20.573Z,6.00
2023-05-14T06:35:48.498Z,5.18
2023-05-14T06:38:16.179Z,5.20
2023-05-14T06:40:43.942Z,5.13
2023-05-14T06:43:11.652Z,5.07
2023-05-14T06:45:40.636Z,5.18
2023-05-14T06:48:10.059Z,5.35
2023-05-14T06:50:37.876Z,4.85
2023-05-14T06:53:05.642Z,4.72
2023-05-14T06:55:33.423Z,4.40
2023-05-14T06:58:01.121Z,4.50
2023-05-14T07:00:29.102Z,4.57
2023-05-14T07:02:58.151Z,4.40
2023-05-14T07:05:26.046Z,4.50
2023-05-14T07:07:53.722Z,4.07
2023-05-14T07:10:21.512Z,4.07
2023-05-14T07:12:49.873Z,3.83
2023-05-14T07:15:17.633Z,3.80
2023-05-14T07:17:45.524Z,3.53
2023-05-14T07:20:14.853Z,4.00
2023-05-14T07:22:42.547Z,3.97
2023-05-14T07:25:10.595Z,3.90
2023-05-14T07:27:38.251Z,3.35
2023-05-14T07:30:07.174Z,3.80
2023-05-14T07:32:34.942Z,3.70
2023-05-14T07:35:02.718Z,3.30
2023-05-14T07:37:31.750Z,3.63
2023-05-14T07:39:59.443Z,3.40
2023-05-14T07:42:35.968Z,3.78
2023-05-14T07:45:05.594Z,3.20
2023-05-14T07:47:33.518Z,3.40
2023-05-14T07:50:01.370Z,3.08
2023-05-14T07:52:29.128Z,3.30
2023-05-14T07:54:58.198Z,3.20
2023-05-14T07:57:26.239Z,2.90
2023-05-14T07:59:53.992Z,3.30
2023-05-14T08:02:21.800Z,5.22
2023-05-14T08:04:49.615Z,5.45
2023-05-14T08:07:17.292Z,6.60
2023-05-14T08:09:45.020Z,6.05
2023-05-14T08:12:14.946Z,6.10
2023-05-14T08:14:42.650Z,9.60
2023-05-14T08:17:10.495Z,4.35
2023-05-14T08:19:38.267Z,5.63
2023-05-14T08:22:06.008Z,5.28
2023-05-14T08:24:33.730Z,7.43
2023-05-14T08:27:02.348Z,7.68
2023-05-14T08:29:31.404Z,9.18
2023-05-14T08:32:00.342Z,6.93
2023-05-14T08:34:31.460Z,8.35
2023-05-14T08:36:59.482Z,9.40
2023-05-14T08:39:27.214Z,9.55
2023-05-14T08:41:54.917Z,10.23
2023-05-14T08:44:26.819Z,9.77
2023-05-14T08:46:55.999Z,14.98
2023-05-14T08:49:29.147Z,13.20
2023-05-14T08:51:56.849Z,12.40
2023-05-14T08:54:26.236Z,10.18
2023-05-14T08:56:54.102Z,12.38
2023-05-14T08:59:21.775Z,12.65
2023-05-14T09:01:50.312Z,11.00
2023-05-14T09:04:22.076Z,15.93
2023-05-14T09:06:50.371Z,13.80
2023-05-14T09:09:18.222Z,7.40
2023-05-14T09:11:46.972Z,8.65
2023-05-14T09:14:14.665Z,4.75
2023-05-14T09:16:43.051Z,8.40
2023-05-14T09:19:10.818Z,42.25
2023-05-14T09:21:40.163Z,9.73
2023-05-14T09:24:08.640Z,7.28
2023-05-14T09:26:36.490Z,9.07
2023-05-14T09:29:04.212Z,6.82
2023-05-14T09:31:32.569Z,9.65
2023-05-14T09:34:00.494Z,7.20
2023-05-14T09:36:28.874Z,10.05
2023-05-14T09:38:58.802Z,7.25
2023-05-14T09:41:26.644Z,8.38
2023-05-14T09:43:54.577Z,23.25
2023-05-14T09:46:22.576Z,10.52
2023-05-14T09:48:50.286Z,13.05
2023-05-14T09:51:18.112Z,10.75
2023-05-14T09:53:45.826Z,8.10
2023-05-14T09:56:14.837Z,9.50
2023-05-14T09:58:42.626Z,8.85
2023-05-14T10:01:10.526Z,5.45
2023-05-14T10:03:38.225Z,7.10
2023-05-14T10:06:06.668Z,3.20
2023-05-14T10:08:35.253Z,3.40
2023-05-14T10:11:04.285Z,7.22
2023-05-14T10:13:37.440Z,5.05
2023-05-14T10:16:07.486Z,6.63
2023-05-14T10:18:37.968Z,9.88
2023-05-14T10:21:06.672Z,8.30
2023-05-14T10:23:34.482Z,6.72
2023-05-14T10:26:02.215Z,8.82
2023-05-14T10:28:29.970Z,5.47
2023-05-14T10:30:59.674Z,6.32
2023-05-14T10:33:27.675Z,3.08
2023-05-14T10:36:00.954Z,9.13
2023-05-14T10:38:29.378Z,6.93
2023-05-14T10:40:58.826Z,5.38
2023-05-14T10:43:27.447Z,6.63
2023-05-14T10:45:55.132Z,3.67
2023-05-14T10:48:24.551Z,6.80
2023-05-14T10:50:52.380Z,4.97
2023-05-14T10:53:21.062Z,6.78
2023-05-14T10:55:48.777Z,9.93
2023-05-14T10:58:16.519Z,153.77
2023-05-14T11:00:44.385Z,12.70
2023-05-14T11:03:13.511Z,7.10
2023-05-14T11:05:42.736Z,9.23
2023-05-14T11:08:10.477Z,10.10
2023-05-14T11:10:38.847Z,5.78
2023-05-14T11:13:06.526Z,8.75
2023-05-14T11:15:34.453Z,34.78
2023-05-14T11:18:02.164Z,6.88
2023-05-14T11:20:29.904Z,13.98
2023-05-14T11:22:58.890Z,9.25
2023-05-14T11:25:26.575Z,14.45
2023-05-14T11:27:58.173Z,15.02
2023-05-14T11:30:26.030Z,11.15
2023-05-14T11:32:54.274Z,12.25
2023-05-14T11:35:22.008Z,9.02
2023-05-14T11:37:53.025Z,7.75
2023-05-14T11:40:22.676Z,12.15
2023-05-14T11:42:52.076Z,9.27
2023-05-14T11:45:25.942Z,5.90
2023-05-14T11:47:53.659Z,10.00
2023-05-14T11:50:22.963Z,9.43
2023-05-14T11:52:50.975Z,3.78
2023-05-14T11:55:18.850Z,5.00
2023-05-14T11:57:48.955Z,2.95
2023-05-14T12:00:21.560Z,3.47
2023-05-14T12:02:49.809Z,6.60
2023-05-14T12:05:17.911Z,4.53
2023-05-14T12:07:45.991Z,4.88
2023-05-14T12:10:13.775Z,10.10
2023-05-14T12:12:41.531Z,16.63
2023-05-14T12:15:14.180Z,8.45
2023-05-14T12:17:42.019Z,8.70
2023-05-14T12:20:12.217Z,6.25
2023-05-14T12:22:40.381Z,12.25
2023-05-14T12:25:12.254Z,5.43
2023-05-14T12:27:40.152Z,8.48
2023-05-14T12:32:41.776Z,8.13
2023-05-14T12:35:09.868Z,11.20
2023-05-14T12:37:39.811Z,7.10
2023-05-14T12:40:09.360Z,7.10
2023-05-14T12:42:37.579Z,8.68
2023-05-14T12:45:08.015Z,6.35
2023-05-14T12:47:36.025Z,5.40
2023-05-14T12:50:05.962Z,4.65
2023-05-14T12:52:38.479Z,4.88
2023-05-14T12:55:08.662Z,6.93
2023-05-14T12:57:36.393Z,11.85
2023-05-14T13:00:06.620Z,11.93
2023-05-14T13:02:42.668Z,10.07
2023-05-14T13:05:12.510Z,13.88
2023-05-14T13:07:40.289Z,7.32
2023-05-14T13:10:08.975Z,10.93
2023-05-14T13:12:36.754Z,13.25
2023-05-14T13:15:04.912Z,6.30
2023-05-14T13:17:32.687Z,7.80
2023-05-14T13:20:00.623Z,6.15
2023-05-14T13:22:29.693Z,7.70
2023-05-14T13:24:57.582Z,8.40
2023-05-14T13:27:25.618Z,7.28
2023-05-14T13:29:53.368Z,9.55
2023-05-14T13:32:21.105Z,40.50
2023-05-14T13:34:48.863Z,5.82
2023-05-14T13:37:16.619Z,7.70
2023-05-14T13:39:45.625Z,13.15
2023-05-14T13:42:13.359Z,9.95
2023-05-14T13:44:41.131Z,6.72
2023-05-14T13:47:08.843Z,9.30
2023-05-14T13:49:36.553Z,12.00
2023-05-14T13:52:04.579Z,8.02
2023-05-14T13:54:32.348Z,6.05
2023-05-14T13:57:01.349Z,11.13
2023-05-14T13:59:29.043Z,7.20
2023-05-14T14:01:56.764Z,8.90
2023-05-14T14:04:25.648Z,7.45
2023-05-14T14:06:53.333Z,11.20
2023-05-14T14:09:21.145Z,10.45
2023-05-14T14:11:48.935Z,10.07
2023-05-14T14:14:18.083Z,12.30
2023-05-14T14:16:45.816Z,13.40
2023-05-14T14:19:14.926Z,11.63
2023-05-14T14:21:43.893Z,16.52
2023-05-14T14:24:11.558Z,11.80
2023-05-14T14:26:39.241Z,16.73
2023-05-14T14:29:06.972Z,16.08
2023-05-14T14:31:36.818Z,12.35
2023-05-14T14:34:04.580Z,14.02
2023-05-14T14:36:32.474Z,11.25
2023-05-14T14:39:00.334Z,8.23
2023-05-14T14:41:28.279Z,8.73
2023-05-14T14:43:55.997Z,12.35
2023-05-14T14:46:23.777Z,13.75
2023-05-14T14:48:52.871Z,7.28
2023-05-14T14:51:20.635Z,10.13
2023-05-14T14:53:48.366Z,8.55
2023-05-14T14:56:16.249Z,9.40
2023-05-14T14:58:45.257Z,11.57
2023-05-14T15:01:13.093Z,9.88
2023-05-14T15:03:41.074Z,10.05
2023-05-14T15:06:10.317Z,9.18
2023-05-14T15:08:38.052Z,9.23
2023-05-14T15:11:06.561Z,15.73
2023-05-14T15:13:34.332Z,14.95
2023-05-14T15:16:02.066Z,13.85
2023-05-14T15:18:29.760Z,12.60
2023-05-14T15:20:57.569Z,14.45
2023-05-14T15:23:26.586Z,15.18
2023-05-14T15:25:54.404Z,13.32
2023-05-14T15:28:22.148Z,11.07
2023-05-14T15:30:49.881Z,16.90
2023-05-14T15:33:19.302Z,13.30
2023-05-14T15:35:47.201Z,19.60
2023-05-14T15:38:14.889Z,13.82
2023-05-14T15:40:44.029Z,15.85
2023-05-14T15:43:11.700Z,22.92
2023-05-14T15:45:39.662Z,14.05
2023-05-14T15:48:07.582Z,11.50
2023-05-14T15:50:35.261Z,16.48
2023-05-14T15:53:03.076Z,12.98
2023-05-14T15:55:30.951Z,13.85
2023-05-14T15:57:59.985Z,16.00
2023-05-14T16:00:27.634Z,13.95
2023-05-14T16:02:55.397Z,12.60
2023-05-14T16:05:23.173Z,9.68
2023-05-14T16:07:50.996Z,9.27
2023-05-14T16:10:19.456Z,16.60
2023-05-14T16:12:47.208Z,11.82
2023-05-14T16:15:16.252Z,8.55
2023-05-14T16:17:44.010Z,11.43
2023-05-14T16:20:13.038Z,13.25
2023-05-14T16:22:40.738Z,12.95
2023-05-14T16:25:09.077Z,11.32
2023-05-14T16:27:36.783Z,10.75
2023-05-14T16:30:05.098Z,10.63
2023-05-14T16:32:34.112Z,10.40
2023-05-14T16:35:02.714Z,10.52
2023-05-14T16:37:30.472Z,7.97
2023-05-14T16:39:58.184Z,10.27
2023-05-14T16:42:26.181Z,9.90
2023-05-14T16:44:53.870Z,12.45
2023-05-14T16:47:21.826Z,8.88
2023-05-14T16:49:50.842Z,7.18
2023-05-14T16:52:18.695Z,9.25
2023-05-14T16:54:46.411Z,6.00
2023-05-14T16:57:14.142Z,6.80
2023-05-14T16:59:41.859Z,8.35
2023-05-14T17:02:10.024Z,8.77
2023-05-14T17:04:38.774Z,10.82
2023-05-14T17:07:07.978Z,7.13
2023-05-14T17:09:35.850Z,5.00
2023-05-14T17:12:03.531Z,7.70
2023-05-14T17:14:31.661Z,5.72
2023-05-14T17:16:59.427Z,7.35
2023-05-14T17:19:27.106Z,9.10
2023-05-14T17:21:54.797Z,8.85
2023-05-14T17:24:23.907Z,6.90
2023-05-14T17:26:51.600Z,5.82
2023-05-14T17:29:19.323Z,7.78
2023-05-14T17:31:48.256Z,6.30
2023-05-14T17:34:17.585Z,7.55
2023-05-14T17:36:45.349Z,8.00
2023-05-14T17:39:13.074Z,5.40
2023-05-14T17:41:42.641Z,6.65
2023-05-14T17:44:12.702Z,5.82
2023-05-14T17:46:41.487Z,7.18
2023-05-14T17:49:30.627Z,5.18
2023-05-14T17:51:58.414Z,5.10
2023-05-14T17:54:26.093Z,5.20
2023-05-14T17:56:55.150Z,8.98
2023-05-14T17:59:24.266Z,5.70
2023-05-14T18:01:52.211Z,5.03
2023-05-14T18:04:19.923Z,7.43
2023-05-14T18:06:47.635Z,6.97
2023-05-14T18:09:15.360Z,5.43
2023-05-14T18:11:43.063Z,5.68
2023-05-14T18:14:12.123Z,5.80
2023-05-14T18:16:39.904Z,3.78
2023-05-14T18:19:07.664Z,6.72
2023-05-14T18:21:35.487Z,6.53
2023-05-14T18:24:03.713Z,6.85
2023-05-14T18:26:34.133Z,4.05
2023-05-14T18:29:02.126Z,4.95
2023-05-14T18:31:31.304Z,6.88
2023-05-14T18:33:59.117Z,7.10
2023-05-14T18:36:26.810Z,3.78
2023-05-14T18:38:54.508Z,4.78
2023-05-14T18:41:22.333Z,4.13
2023-05-14T18:43:50.087Z,5.20
2023-05-14T18:46:18.075Z,4.10
2023-05-14T18:48:47.187Z,6.43
2023-05-14T18:51:14.864Z,5.53
2023-05-14T18:53:42.610Z,5.00
2023-05-14T18:56:10.437Z,4.55
2023-05-14T18:58:38.131Z,4.68
2023-05-14T19:01:05.866Z,3.67
2023-05-14T19:03:34.787Z,4.55
2023-05-14T19:06:03.925Z,4.63
2023-05-14T19:08:31.623Z,4.93
2023-05-14T19:10:59.305Z,5.22
2023-05-14T19:13:28.435Z,3.95
2023-05-14T19:15:56.214Z,4.57
2023-05-14T19:18:23.953Z,4.50
2023-05-14T19:20:51.852Z,5.40
2023-05-14T19:23:20.883Z,4.15
2023-05-14T19:25:48.567Z,4.38
2023-05-14T19:28:16.500Z,3.50
2023-05-14T19:30:44.217Z,3.75
2023-05-14T19:33:11.969Z,4.00
2023-05-14T19:35:39.753Z,5.80
2023-05-14T19:38:09.072Z,3.53
2023-05-14T19:40:38.096Z,3.92
2023-05-14T19:43:07.762Z,3.63
2023-05-14T19:45:38.771Z,3.63
2023-05-14T19:48:06.928Z,5.05
2023-05-14T19:50:36.710Z,3.78
2023-05-14T19:53:04.558Z,3.42
2023-05-14T19:55:32.274Z,4.47
2023-05-14T19:58:01.273Z,4.28
2023-05-14T20:00:28.966Z,4.15
2023-05-14T20:02:59.349Z,3.25
2023-05-14T20:05:27.481Z,3.13
2023-05-14T20:07:55.641Z,4.55
2023-05-14T20:10:24.165Z,2.65
2023-05-14T20:12:52.024Z,3.88
2023-05-14T20:15:21.374Z,3.97
2023-05-14T20:17:49.172Z,3.78
2023-05-14T20:20:16.961Z,5.13
2023-05-14T20:22:44.665Z,3.80
2023-05-14T20:25:12.377Z,6.30
2023-05-14T20:27:41.086Z,4.28
2023-05-14T20:30:09.570Z,3.10
2023-05-14T20:32:38.634Z,3.47
2023-05-14T20:35:07.359Z,3.97
2023-05-14T20:37:35.070Z,3.72
2023-05-14T20:40:04.751Z,3.88
2023-05-14T20:42:32.494Z,3.35
2023-05-14T20:45:00.282Z,3.40
2023-05-14T20:47:30.436Z,3.08
2023-05-14T20:49:59.523Z,3.17
2023-05-14T20:52:27.221Z,4.65
2023-05-14T20:54:54.902Z,2.97
2023-05-14T20:57:22.660Z,3.60
2023-05-14T20:59:50.378Z,2.70
2023-05-14T21:02:18.188Z,3.80
2023-05-14T21:04:45.979Z,2.63
2023-05-14T21:07:15.077Z,2.80
2023-05-14T21:09:43.820Z,2.45
2023-05-14T21:12:11.714Z,3.08
2023-05-14T21:14:39.390Z,2.88
2023-05-14T21:17:07.096Z,2.58
2023-05-14T21:19:34.749Z,3.45
2023-05-14T21:22:02.428Z,3.00
2023-05-14T21:24:31.442Z,5.07
2023-05-14T21:26:59.273Z,2.90
2023-05-14T21:29:27.004Z,3.83
2023-05-14T21:31:54.732Z,3.60
2023-05-14T21:34:22.448Z,3.35
2023-05-14T21:36:50.119Z,3.50
2023-05-14T21:39:17.794Z,3.00
2023-05-14T21:41:46.816Z,3.55
2023-05-14T21:44:14.483Z,3.05
2023-05-14T21:46:42.257Z,3.08
2023-05-14T21:49:09.938Z,3.58
2023-05-14T21:51:37.646Z,2.75
2023-05-14T21:54:05.686Z,2.90
2023-05-14T21:56:33.378Z,3.33
2023-05-14T21:59:02.389Z,3.03
2023-05-14T22:01:30.079Z,2.78
2023-05-14T22:03:58.127Z,2.80
2023-05-14T22:06:26.085Z,3.72
2023-05-14T22:08:53.798Z,3.88
2023-05-14T22:11:21.739Z,2.80
2023-05-14T22:13:49.418Z,2.50
2023-05-14T22:16:18.437Z,3.97
2023-05-14T22:18:47.080Z,3.13
2023-05-14T22:21:14.919Z,3.20
2023-05-14T22:23:42.590Z,2.67
2023-05-14T22:26:10.396Z,2.83
2023-05-14T22:28:42.702Z,2.85
2023-05-14T22:31:10.609Z,2.97
2023-05-14T22:33:39.689Z,2.42
2023-05-14T22:36:07.859Z,2.58
2023-05-14T22:38:35.633Z,2.08
2023-05-14T22:41:03.310Z,3.08
2023-05-14T22:43:31.004Z,2.63
2023-05-14T22:45:58.716Z,2.33
2023-05-14T22:48:26.377Z,3.03
2023-05-14T22:50:55.377Z,3.53
2023-05-14T22:53:24.390Z,2.40
2023-05-14T22:55:52.921Z,2.10
2023-05-14T22:58:21.026Z,2.72
2023-05-14T23:00:48.738Z,2.67
2023-05-14T23:03:16.435Z,2.45
2023-05-14T23:05:44.116Z,3.28
2023-05-14T23:08:13.199Z,2.85
2023-05-14T23:10:40.896Z,3.30
2023-05-14T23:13:08.587Z,1.98
2023-05-14T23:15:36.282Z,2.40
2023-05-14T23:18:04.195Z,2.58
2023-05-14T23:20:31.912Z,2.83
2023-05-14T23:22:59.607Z,2.45
2023-05-14T23:25:28.619Z,2.53
2023-05-14T23:27:56.276Z,2.80
2023-05-14T23:30:23.949Z,2.72
2023-05-14T23:32:51.733Z,2.42
2023-05-14T23:35:19.444Z,2.50
2023-05-14T23:37:49.395Z,2.40
2023-05-14T23:40:17.314Z,3.22
2023-05-14T23:42:46.446Z,2.38
2023-05-14T23:45:14.297Z,2.45
2023-05-14T23:47:42.071Z,2.33
2023-05-14T23:50:09.948Z,2.33
2023-05-14T23:52:37.598Z,2.17
2023-05-14T23:55:06.367Z,2.63
2023-05-14T23:57:34.052Z,2.70
